Time;durP1;ratioP1;P1;durP2;ratioP2;P2;SDS_P1;SDS_P2;PMS_P1;PMS_P2;Temp;Humidity;BMP_temperature;BMP_pressure;BME280_temperature;BME280_humidity;BME280_pressure;Samples;Min_cycle;Max_cycle;Signal;HPM_P1;HPM_P2
2023/02/18 00:01:37;;;;;;;20.20;17.25;;;;;;;10.38;100.00;102234.97;5090632;28;20055;-36
2023/02/18 00:04:03;;;;;;;21.45;17.15;;;;;;;10.31;100.00;102217.88;5090626;28;20055;-36
2023/02/18 00:06:32;;;;;;;22.95;18.55;;;;;;;10.40;100.00;102232.09;5090237;28;20496;-36
2023/02/18 00:09:00;;;;;;;20.20;17.58;;;;;;;10.39;100.00;102233.94;5090763;28;20095;-36
2023/02/18 00:11:26;;;;;;;21.27;17.55;;;;;;;10.37;100.00;102233.31;5090089;28;20472;-36
2023/02/18 00:13:54;;;;;;;20.00;17.75;;;;;;;10.30;100.00;102221.63;5079274;28;20048;-36
2023/02/18 00:16:21;;;;;;;19.13;16.98;;;;;;;10.38;100.00;102228.72;5076288;28;20037;-36
2023/02/18 00:18:47;;;;;;;20.35;17.73;;;;;;;10.38;100.00;102218.75;5075970;28;20028;-36
2023/02/18 00:21:13;;;;;;;22.65;18.60;;;;;;;10.36;100.00;102231.63;5075890;28;20025;-36
2023/02/18 00:23:38;;;;;;;22.55;19.33;;;;;;;10.30;100.00;102208.09;5075878;28;20036;-36
2023/02/18 00:26:10;;;;;;;23.63;19.13;;;;;;;10.38;100.00;102217.91;5075855;28;20111;-36
2023/02/18 00:28:37;;;;;;;21.85;19.55;;;;;;;10.36;100.00;102210.00;5076311;28;20115;-36
2023/02/18 00:31:19;;;;;;;26.65;20.63;;;;;;;10.32;100.00;102214.13;5075784;28;20039;-36
2023/02/18 00:33:44;;;;;;;24.55;20.77;;;;;;;10.35;100.00;102212.91;5075962;28;20078;-36
2023/02/18 00:36:13;;;;;;;25.57;21.20;;;;;;;10.35;100.00;102202.09;5076566;28;20468;-36
2023/02/18 00:38:38;;;;;;;24.73;21.42;;;;;;;10.29;100.00;102192.88;5076341;28;20255;-36
2023/02/18 00:41:05;;;;;;;26.02;21.50;;;;;;;10.34;100.00;102198.53;5075888;28;20032;-36
2023/02/18 00:43:31;;;;;;;26.17;20.33;;;;;;;10.37;100.00;102206.28;5075779;28;20452;-36
2023/02/18 00:45:56;;;;;;;25.30;21.92;;;;;;;10.37;100.00;102197.31;5075809;28;20111;-36
2023/02/18 00:48:21;;;;;;;23.47;20.53;;;;;;;10.37;100.00;102183.81;5075445;28;20094;-36
2023/02/18 00:50:47;;;;;;;24.27;20.57;;;;;;;10.35;100.00;102184.00;5076218;28;20259;-36
2023/02/18 00:53:12;;;;;;;24.05;21.15;;;;;;;10.29;100.00;102179.38;5075898;28;20295;-36
2023/02/18 00:55:42;;;;;;;26.42;22.73;;;;;;;10.38;100.00;102180.06;5075883;28;20032;-36
2023/02/18 00:58:08;;;;;;;25.73;21.58;;;;;;;10.38;100.00;102180.06;5075502;28;20033;-36
2023/02/18 01:00:33;;;;;;;26.55;21.95;;;;;;;10.35;100.00;102173.19;5075566;28;20054;-36
2023/02/18 01:02:59;;;;;;;25.73;23.00;;;;;;;10.39;100.00;102187.97;5076009;28;20084;-36
2023/02/18 01:05:24;;;;;;;25.97;22.97;;;;;;;10.36;100.00;102166.75;5075779;28;20032;-36
2023/02/18 01:07:49;;;;;;;27.67;21.90;;;;;;;10.28;100.00;102153.38;5075601;28;20021;-37
2023/02/18 01:10:15;;;;;;;27.83;23.53;;;;;;;10.38;100.00;102164.66;5075049;28;20345;-36
2023/02/18 01:12:41;;;;;;;30.40;23.95;;;;;;;10.38;100.00;102158.44;5075736;28;20028;-36
2023/02/18 01:15:07;;;;;;;29.50;25.30;;;;;;;10.38;100.00;102161.13;5075172;28;20028;-36
2023/02/18 01:17:32;;;;;;;;;;;;;;;10.39;100.00;102163.63;5075483;28;20040;-36
2023/02/18 01:19:58;;;;;;;29.17;26.00;;;;;;;10.35;100.00;102145.31;5075356;28;19908;-36
2023/02/18 01:22:24;;;;;;;30.80;27.15;;;;;;;10.32;100.00;102143.84;5075228;28;20287;-36
2023/02/18 01:24:49;;;;;;;32.83;28.17;;;;;;;10.36;100.00;102147.81;5074328;28;20029;-36
2023/02/18 01:27:14;;;;;;;34.40;28.90;;;;;;;10.38;100.00;102153.84;5074938;28;20059;-36
2023/02/18 01:29:39;;;;;;;37.80;28.50;;;;;;;10.34;100.00;102146.31;5074940;28;20029;-36
2023/02/18 01:32:05;;;;;;;36.43;29.80;;;;;;;10.34;100.00;102157.97;5074875;28;20102;-36
2023/02/18 01:34:30;;;;;;;35.67;29.67;;;;;;;10.26;100.00;102148.16;5075673;28;20024;-36
2023/02/18 01:36:55;;;;;;;34.60;28.20;;;;;;;10.32;100.00;102157.34;5074703;28;20033;-36
2023/02/18 01:39:21;;;;;;;32.20;28.27;;;;;;;10.24;100.00;102139.41;5074460;28;20028;-36
2023/02/18 01:41:46;;;;;;;37.22;29.08;;;;;;;10.30;100.00;102151.31;5074756;28;20033;-36
2023/02/18 01:44:13;;;;;;;35.78;28.30;;;;;;;10.30;100.00;102151.31;5075502;28;20048;-36
2023/02/18 01:46:39;;;;;;;38.90;29.45;;;;;;;10.27;100.00;102160.66;5074412;28;20387;-36
2023/02/18 01:49:05;;;;;;;41.10;31.45;;;;;;;10.22;100.00;102149.56;5074844;28;20111;-36
2023/02/18 01:51:36;;;;;;;45.42;32.22;;;;;;;10.21;100.00;102155.16;5074661;28;20033;-36
2023/02/18 01:54:17;;;;;;;41.03;29.60;;;;;;;10.18;100.00;102137.47;5074948;28;20377;-36
2023/02/18 01:56:55;;;;;;;42.00;30.33;;;;;;;10.19;100.00;102149.94;5074658;28;20046;-36
2023/02/18 01:59:29;;;;;;;37.90;29.40;;;;;;;10.18;100.00;102140.16;5074593;28;20115;-36
2023/02/18 02:01:54;;;;;;;39.63;28.60;;;;;;;10.16;100.00;102139.53;5073851;28;20452;-36
2023/02/18 02:04:20;;;;;;;39.17;28.37;;;;;;;10.16;100.00;102141.41;5074791;28;20029;-36
2023/02/18 02:06:46;;;;;;;39.67;28.38;;;;;;;10.17;100.00;102140.38;5073850;28;20273;-36
2023/02/18 02:09:15;;;;;;;40.20;28.98;;;;;;;10.18;100.00;102139.31;5074687;28;20448;-36
2023/02/18 02:12:15;;;;;;;38.83;28.67;;;;;;;10.16;100.00;102131.44;5074017;28;20038;-36
2023/02/18 02:14:57;;;;;;;38.90;28.58;;;;;;;10.10;100.00;102121.38;5074343;28;20059;-36
2023/02/18 02:17:40;;;;;;;43.40;29.08;;;;;;;10.15;100.00;102129.75;5074283;28;20489;-36
2023/02/18 02:20:27;;;;;;;38.30;28.98;;;;;;;10.12;100.00;102121.19;5074478;28;20024;-36
2023/02/18 02:22:58;;;;;;;41.22;29.90;;;;;;;10.10;100.00;102113.28;5074110;28;20468;-36
2023/02/18 02:25:45;;;;;;;40.53;28.42;;;;;;;10.09;100.00;102105.38;5074489;28;20040;-36
2023/02/18 02:28:35;;;;;;;37.67;29.23;;;;;;;10.07;100.00;102102.88;5074169;28;20380;-36
2023/02/18 02:31:19;;;;;;;37.50;28.10;;;;;;;9.98;100.00;102087.84;5074374;28;20029;-36
2023/02/18 02:34:11;;;;;;;38.42;27.38;;;;;;;10.06;100.00;102101.22;5074115;28;20028;-36
2023/02/18 02:36:53;;;;;;;37.38;27.85;;;;;;;10.04;100.00;102095.97;5073195;28;20036;-36
2023/02/18 02:39:32;;;;;;;35.95;25.92;;;;;;;10.03;100.00;102091.63;5073778;28;20545;-37
2023/02/18 02:42:16;;;;;;;36.03;26.40;;;;;;;10.03;100.00;102091.63;5074450;28;20361;-36
2023/02/18 02:45:17;;;;;;;34.38;26.10;;;;;;;9.96;100.00;102071.81;5073375;28;20033;-36
2023/02/18 02:47:58;;;;;;;32.60;25.40;;;;;;;10.01;100.00;102085.59;5073939;28;20070;-36
2023/02/18 02:50:51;;;;;;;35.17;26.08;;;;;;;10.01;100.00;102077.47;5074166;28;20028;-36
2023/02/18 02:53:27;;;;;;;32.05;23.73;;;;;;;10.00;100.00;102075.81;5074372;28;20024;-36
2023/02/18 02:55:54;;;;;;;34.17;25.30;;;;;;;9.98;100.00;102067.03;5074385;28;20036;-36
2023/02/18 02:58:20;;;;;;;33.03;24.15;;;;;;;9.99;100.00;102060.59;5073480;28;20029;-36
2023/02/18 03:01:18;;;;;;;31.02;22.77;;;;;;;9.90;100.00;102032.06;5072996;28;20074;-36
2023/02/18 03:04:05;;;;;;;27.75;22.45;;;;;;;9.94;100.00;102048.72;5073761;28;20020;-38
2023/02/18 03:06:48;;;;;;;31.67;23.30;;;;;;;9.92;100.00;102037.28;5073179;28;20105;-36
2023/02/18 03:09:38;;;;;;;27.45;21.08;;;;;;;9.90;100.00;102031.22;5073081;28;20163;-36
2023/02/18 03:12:21;;;;;;;24.67;19.27;;;;;;;9.80;100.00;102010.81;5073356;28;20029;-36
2023/02/18 03:14:58;;;;;;;24.80;19.33;;;;;;;9.79;100.00;102005.59;5073661;28;20028;-36
2023/02/18 03:17:29;;;;;;;22.20;17.75;;;;;;;9.80;100.00;102015.38;5073112;28;20035;-36
2023/02/18 03:20:08;;;;;;;20.73;17.35;;;;;;;9.74;100.00;101998.09;5073361;28;20079;-36
2023/02/18 03:22:43;;;;;;;18.70;16.05;;;;;;;9.80;100.00;102009.97;5074343;28;20020;-36
2023/02/18 03:25:09;;;;;;;17.10;15.18;;;;;;;9.72;100.00;101985.84;5073325;28;20025;-36
2023/02/18 03:27:42;;;;;;;16.13;14.40;;;;;;;9.76;100.00;101987.06;5072954;28;20036;-36
2023/02/18 03:30:16;;;;;;;14.55;13.02;;;;;;;9.64;100.00;101961.66;5073475;28;20388;-36
2023/02/18 03:32:42;;;;;;;15.10;13.07;;;;;;;9.75;100.00;101980.00;5073168;28;20021;-36
2023/02/18 03:35:09;;;;;;;;;;;;;;;9.77;100.00;101978.81;5073561;28;20488;-36
2023/02/18 03:37:40;;;;;;;14.13;11.23;;;;;;;9.69;100.00;101967.31;5073166;28;19908;-36
2023/02/18 03:40:07;;;;;;;12.65;10.75;;;;;;;9.58;100.00;101946.25;5073708;28;20039;-36
2023/02/18 03:42:33;;;;;;;10.90;9.85;;;;;;;9.72;100.00;101978.56;5072654;28;20029;-36
2023/02/18 03:44:58;;;;;;;11.23;10.13;;;;;;;9.72;100.00;101972.31;5073066;28;20533;-36
2023/02/18 03:47:24;;;;;;;10.45;9.38;;;;;;;9.72;100.00;101970.44;5073272;28;20032;-36
2023/02/18 03:49:50;;;;;;;9.93;8.73;;;;;;;9.71;100.00;101962.53;5077150;28;20146;-36
2023/02/18 03:52:15;;;;;;;9.07;8.17;;;;;;;9.64;100.00;101956.25;5077545;28;20037;-36
2023/02/18 03:54:41;;;;;;;9.18;8.18;;;;;;;9.71;100.00;101962.53;5076747;28;20251;-36
2023/02/18 03:57:06;;;;;;;8.73;7.82;;;;;;;9.71;100.00;101957.13;5076642;28;20040;-36
2023/02/18 03:59:32;;;;;;;8.27;7.32;;;;;;;9.64;100.00;101942.75;5077447;28;20031;-36
2023/02/18 04:01:58;;;;;;;7.93;7.13;;;;;;;9.69;100.00;101953.81;5076360;28;20052;-36
2023/02/18 04:04:23;;;;;;;8.07;7.20;;;;;;;9.69;100.00;101945.69;5077120;28;20120;-36
2023/02/18 04:06:48;;;;;;;8.07;7.27;;;;;;;9.60;100.00;101930.69;5076752;28;20031;-36
2023/02/18 04:09:14;;;;;;;7.30;6.17;;;;;;;9.62;100.00;101931.34;5076821;28;20032;-36
2023/02/18 04:11:40;;;;;;;7.07;6.15;;;;;;;9.52;100.00;101916.31;5076365;28;20099;-36
2023/02/18 04:14:06;;;;;;;6.40;5.80;;;;;;;9.57;100.00;101920.28;5077027;28;20123;-36
2023/02/18 04:16:32;;;;;;;7.35;6.05;;;;;;;9.64;100.00;101935.50;5076566;28;20028;-37
2023/02/18 04:18:57;;;;;;;7.88;6.60;;;;;;;9.65;100.00;101930.91;5077145;28;20036;-36
2023/02/18 04:21:22;;;;;;;6.73;6.03;;;;;;;9.62;100.00;101923.22;5076213;28;20037;-37
2023/02/18 04:23:48;;;;;;;5.93;5.33;;;;;;;9.64;100.00;101921.16;5076755;28;20498;-41
2023/02/18 04:26:13;;;;;;;6.17;5.13;;;;;;;9.54;100.00;101911.53;5076810;28;20408;-36
2023/02/18 04:28:38;;;;;;;5.70;5.07;;;;;;;9.61;100.00;101926.94;5075821;28;20025;-36
2023/02/18 04:31:04;;;;;;;6.00;5.40;;;;;;;9.60;100.00;101922.56;5076107;28;20051;-36
2023/02/18 04:33:29;;;;;;;6.17;5.47;;;;;;;9.58;100.00;101917.38;5076046;28;20089;-36
2023/02/18 04:35:55;;;;;;;6.80;5.32;;;;;;;9.55;100.00;101921.31;5075967;28;20374;-36
2023/02/18 04:38:20;;;;;;;5.93;5.33;;;;;;;9.57;100.00;101915.72;5075711;28;20016;-36
2023/02/18 04:40:45;;;;;;;6.00;4.83;;;;;;;9.55;100.00;101909.66;5076686;28;20362;-36
2023/02/18 04:43:11;;;;;;;5.60;5.03;;;;;;;9.57;100.00;101906.78;5075701;28;20166;-36
2023/02/18 04:45:36;;;;;;;6.05;5.47;;;;;;;9.56;100.00;101922.13;5076611;28;20029;-36
2023/02/18 04:48:02;;;;;;;5.70;5.07;;;;;;;9.48;100.00;101906.94;5075690;28;20051;-36
2023/02/18 04:50:27;;;;;;;5.35;4.72;;;;;;;9.48;100.00;101908.81;5075686;28;20020;-36
2023/02/18 04:52:53;;;;;;;6.22;5.40;;;;;;;9.53;100.00;101917.16;5075311;28;20036;-36
2023/02/18 04:55:18;;;;;;;5.87;5.17;;;;;;;9.49;100.00;101919.41;5076199;28;20033;-36
2023/02/18 04:57:44;;;;;;;5.80;5.10;;;;;;;9.45;100.00;101898.38;5075335;28;20034;-36
2023/02/18 05:00:14;;;;;;;5.97;5.38;;;;;;;9.54;100.00;101913.41;5075997;28;20082;-36
2023/02/18 05:02:39;;;;;;;5.72;5.07;;;;;;;9.50;100.00;101910.25;5075516;28;20047;-36
2023/02/18 05:05:05;;;;;;;5.47;4.70;;;;;;;9.47;100.00;101891.78;5076076;28;20414;-36
2023/02/18 05:07:30;;;;;;;5.37;4.77;;;;;;;9.50;100.00;101902.16;5075127;28;20029;-36
2023/02/18 05:09:55;;;;;;;5.30;4.80;;;;;;;9.52;100.00;101900.13;5075404;28;20107;-36
2023/02/18 05:12:21;;;;;;;5.53;4.87;;;;;;;9.44;100.00;101881.38;5075232;28;20111;-36
2023/02/18 05:14:46;;;;;;;5.83;5.00;;;;;;;9.51;100.00;101898.41;5075606;28;20032;-36
2023/02/18 05:17:11;;;;;;;4.87;4.37;;;;;;;9.50;100.00;101885.13;5074921;28;20031;-36
2023/02/18 05:19:37;;;;;;;5.40;4.80;;;;;;;9.50;100.00;101879.72;5075459;28;20049;-36
2023/02/18 05:22:02;;;;;;;5.47;4.93;;;;;;;9.48;100.00;101882.63;5075568;28;20518;-36
2023/02/18 05:24:27;;;;;;;5.53;4.75;;;;;;;9.49;100.00;101878.06;5075949;28;20024;-36
2023/02/18 05:26:53;;;;;;;4.73;4.20;;;;;;;9.39;100.00;101873.03;5074599;28;20118;-36
2023/02/18 05:29:18;;;;;;;6.47;5.40;;;;;;;9.48;100.00;101879.94;5074719;28;20025;-36
2023/02/18 05:31:43;;;;;;;4.50;4.10;;;;;;;9.48;100.00;101881.81;5074950;28;20036;-36
2023/02/18 05:34:09;;;;;;;4.87;4.37;;;;;;;9.49;100.00;101878.91;5075442;28;20024;-36
2023/02/18 05:36:34;;;;;;;5.60;4.47;;;;;;;9.47;100.00;101886.38;5074797;28;20029;-36
2023/02/18 05:39:00;;;;;;;5.53;4.50;;;;;;;9.48;100.00;101879.94;5075097;28;20384;-36
2023/02/18 05:41:25;;;;;;;5.10;4.60;;;;;;;9.49;100.00;101881.59;5074616;28;20056;-36
2023/02/18 05:46:34;;;;;;;5.57;4.95;;;;;;;9.45;100.00;101877.63;5074671;28;20027;-36
2023/02/18 05:49:00;;;;;;;5.23;4.53;;;;;;;9.34;100.00;101847.66;5075332;28;20068;-36
2023/02/18 05:51:25;;;;;;;4.77;4.30;;;;;;;9.45;100.00;101869.53;5074163;28;20036;-36
2023/02/18 05:53:50;;;;;;;5.60;5.10;;;;;;;9.45;100.00;101858.72;5074529;28;20054;-36
2023/02/18 05:56:16;;;;;;;5.50;5.00;;;;;;;9.39;100.00;101845.19;5074500;28;20021;-36
2023/02/18 05:58:41;;;;;;;5.97;5.37;;;;;;;9.46;100.00;101856.84;5074666;28;20028;-37
2023/02/18 06:01:06;;;;;;;6.37;5.77;;;;;;;9.43;100.00;101841.06;5074287;28;20031;-36
2023/02/18 06:03:32;;;;;;;6.28;5.68;;;;;;;9.44;100.00;101838.16;5074869;28;20105;-36
2023/02/18 06:05:57;;;;;;;6.40;5.80;;;;;;;9.43;100.00;101844.59;5074258;28;20119;-36
2023/02/18 06:08:22;;;;;;;6.30;5.70;;;;;;;9.41;100.00;101845.81;5074179;28;20032;-36
2023/02/18 06:10:48;;;;;;;6.13;5.53;;;;;;;9.42;100.00;101850.19;5074527;28;20029;-36
2023/02/18 06:13:13;;;;;;;6.30;5.70;;;;;;;9.42;100.00;101855.56;5074638;28;20097;-36
2023/02/18 06:15:39;;;;;;;6.77;6.17;;;;;;;9.42;100.00;101863.69;5074433;28;20043;-36
2023/02/18 06:18:05;;;;;;;7.13;6.43;;;;;;;9.41;100.00;101843.94;5074060;28;20044;-36
2023/02/18 06:20:31;;;;;;;7.18;6.47;;;;;;;9.41;100.00;101841.25;5074346;28;20376;-36
2023/02/18 06:22:58;;;;;;;7.55;6.85;;;;;;;9.42;100.00;101825.88;5074679;28;20021;-36
2023/02/18 06:25:24;;;;;;;7.25;6.55;;;;;;;9.38;100.00;101828.16;5074247;28;20052;-36
2023/02/18 06:27:49;;;;;;;8.63;7.82;;;;;;;9.39;100.00;101834.41;5073922;28;20064;-36
2023/02/18 06:30:15;;;;;;;9.20;8.37;;;;;;;9.41;100.00;101843.94;5074184;28;20499;-36
2023/02/18 06:32:40;;;;;;;9.18;8.27;;;;;;;9.27;100.00;101813.38;5073512;28;20271;-36
2023/02/18 06:35:06;;;;;;;9.80;8.90;;;;;;;9.34;100.00;101829.59;5073495;28;20052;-36
2023/02/18 06:37:31;;;;;;;9.65;8.75;;;;;;;9.41;100.00;101846.66;5073739;28;20025;-36
2023/02/18 06:39:57;;;;;;;10.38;9.48;;;;;;;9.38;100.00;101848.94;5073499;28;20061;-36
2023/02/18 06:42:22;;;;;;;10.80;9.80;;;;;;;9.39;100.00;101840.63;5074422;28;20031;-36
2023/02/18 06:44:48;;;;;;;11.27;10.27;;;;;;;9.36;100.00;101830.22;5073926;28;20302;-36
2023/02/18 06:47:13;;;;;;;11.20;10.10;;;;;;;9.40;100.00;101844.16;5073446;28;20082;-36
2023/02/18 06:49:38;;;;;;;11.13;10.03;;;;;;;9.38;100.00;101843.53;5074201;28;20111;-36
2023/02/18 06:52:04;;;;;;;11.60;10.50;;;;;;;9.37;100.00;101842.72;5073908;28;20032;-36
2023/02/18 06:54:30;;;;;;;12.15;10.95;;;;;;;9.36;100.00;101835.63;5073839;28;20281;-36
2023/02/18 06:56:55;;;;;;;13.45;12.15;;;;;;;9.28;100.00;101828.53;5073874;28;20089;-36
2023/02/18 06:59:21;;;;;;;12.03;10.90;;;;;;;9.36;100.00;101834.78;5073913;28;20035;-36
2023/02/18 07:01:46;;;;;;;12.77;11.63;;;;;;;9.34;100.00;101848.50;5073196;28;20342;-36
2023/02/18 07:04:12;;;;;;;12.80;11.60;;;;;;;9.34;100.00;101842.25;5074351;28;20060;-36
2023/02/18 07:06:37;;;;;;;11.07;10.07;;;;;;;9.31;100.00;101843.47;5074283;28;20449;-36
2023/02/18 07:09:04;;;;;;;10.57;9.43;;;;;;;9.28;100.00;101852.81;5073799;28;20125;-36
2023/02/18 07:11:29;;;;;;;;;;;;;;;9.26;100.00;101851.34;5073857;28;20279;-36
2023/02/18 07:13:54;;;;;;;8.40;7.65;;;;;;;9.23;100.00;101851.75;5074245;28;20375;-36
2023/02/18 07:16:19;;;;;;;7.47;6.77;;;;;;;9.11;100.00;101831.72;5073640;28;20151;-36
2023/02/18 07:18:45;;;;;;;7.07;6.10;;;;;;;9.13;100.00;101844.00;5073627;28;20056;-36
2023/02/18 07:21:10;;;;;;;7.70;5.30;;;;;;;9.11;100.00;101864.94;5073825;28;20024;-36
2023/02/18 07:23:35;;;;;;;10.20;5.27;;;;;;;9.03;100.00;101847.03;5075885;28;20840;-36
2023/02/18 07:26:12;;;;;;;5.70;4.90;;;;;;;9.09;100.00;101856.22;5077689;28;20095;-36
2023/02/18 07:28:38;;;;;;;6.82;5.10;;;;;;;9.08;100.00;101859.09;5077273;28;20024;-36
2023/02/18 07:31:03;;;;;;;;;;;;;;;9.09;100.00;101855.38;5078504;28;20021;-36
2023/02/18 07:33:29;;;;;;;7.55;5.60;;;;;;;9.04;100.00;101864.06;5077722;28;19915;-36
2023/02/18 07:35:59;;;;;;;7.95;5.80;;;;;;;9.02;100.00;101872.34;5077936;28;20028;-36
2023/02/18 07:38:26;;;;;;;7.10;6.07;;;;;;;8.95;100.00;101865.22;5077083;28;20029;-36
2023/02/18 07:40:52;;;;;;;7.65;5.47;;;;;;;9.02;100.00;101871.50;5076711;28;20034;-36
2023/02/18 07:43:18;;;;;;;9.50;6.85;;;;;;;8.88;100.00;101856.25;5076602;28;20060;-36
2023/02/18 07:45:44;;;;;;;8.68;7.13;;;;;;;8.98;100.00;101879.19;5077271;28;20025;-36
2023/02/18 07:48:10;;;;;;;9.27;7.63;;;;;;;8.93;100.00;101857.34;5077137;28;20032;-36
2023/02/18 07:50:38;;;;;;;10.13;7.40;;;;;;;8.99;100.00;101877.31;5077108;28;20071;-36
2023/02/18 07:53:04;;;;;;;9.95;7.63;;;;;;;8.99;100.00;101878.13;5076948;28;20418;-36
2023/02/18 07:55:48;;;;;;;8.10;6.95;;;;;;;9.02;100.00;101866.94;5077210;28;20029;-36
2023/02/18 07:58:26;;;;;;;12.77;7.85;;;;;;;9.03;100.00;101882.13;5076709;28;20035;-36
2023/02/18 08:00:53;;;;;;;8.95;5.90;;;;;;;8.92;100.00;101854.81;5076622;28;20032;-36
2023/02/18 08:03:20;;;;;;;8.88;6.50;;;;;;;9.06;100.00;101874.66;5077017;28;20056;-36
2023/02/18 08:05:48;;;;;;;12.35;7.15;;;;;;;9.07;100.00;101860.13;5077363;28;20087;-36
2023/02/18 08:08:15;;;;;;;11.02;6.00;;;;;;;9.08;100.00;101859.94;5076965;28;20052;-36
2023/02/18 08:10:41;;;;;;;10.20;5.63;;;;;;;9.13;100.00;101872.84;5076703;28;20035;-36
2023/02/18 08:13:08;;;;;;;11.27;6.15;;;;;;;9.06;100.00;101853.06;5076410;28;20056;-36
2023/02/18 08:15:33;;;;;;;;;;;;;;;9.19;100.00;101874.75;5077374;28;20440;-36
2023/02/18 08:17:59;;;;;;;11.45;5.30;;;;;;;9.13;100.00;101873.69;5076054;28;19952;-36
2023/02/18 08:20:24;;;;;;;11.68;5.85;;;;;;;9.23;100.00;101873.34;5076875;28;20038;-36
2023/02/18 08:22:50;;;;;;;13.17;5.67;;;;;;;9.25;100.00;101869.41;5076387;28;20192;-36
2023/02/18 08:25:15;;;;;;;14.43;5.13;;;;;;;9.29;100.00;101873.38;5075941;28;20028;-36
2023/02/18 08:27:40;;;;;;;9.70;4.27;;;;;;;9.26;100.00;101856.72;5075794;28;20028;-36
2023/02/18 08:30:07;;;;;;;11.70;5.13;;;;;;;9.34;100.00;101870.09;5076964;28;20081;-36
2023/02/18 08:32:32;;;;;;;;;;;;;;;9.42;100.00;101882.56;5076182;28;20029;-36
2023/02/18 08:34:57;;;;;;;9.70;4.10;;;;;;;9.34;100.00;101864.69;5075529;28;19973;-36
2023/02/18 08:37:23;;;;;;;13.20;3.93;;;;;;;9.40;100.00;101876.56;5075964;28;20354;-36
2023/02/18 08:39:48;;;;;;;11.98;4.05;;;;;;;9.41;100.00;101876.34;5076767;28;20043;-36
2023/02/18 08:42:14;;;;;;;11.13;4.67;;;;;;;9.40;100.00;101877.38;5076613;28;20020;-36
2023/02/18 08:44:39;;;;;;;12.43;5.67;;;;;;;9.40;100.00;101877.38;5075585;28;20027;-36
2023/02/18 08:47:04;;;;;;;11.87;4.83;;;;;;;9.39;100.00;101897.31;5075782;28;20255;-36
2023/02/18 08:49:30;;;;;;;13.77;4.03;;;;;;;9.39;100.00;101893.78;5075592;28;20059;-36
2023/02/18 08:51:55;;;;;;;12.83;4.07;;;;;;;9.41;100.00;101891.72;5075579;28;20127;-36
2023/02/18 08:54:20;;;;;;;10.20;4.33;;;;;;;9.41;100.00;101907.91;5076022;28;20116;-36
2023/02/18 08:56:46;;;;;;;10.53;3.53;;;;;;;9.35;100.00;101898.75;5075345;28;20025;-36
2023/02/18 08:59:11;;;;;;;10.23;3.92;;;;;;;9.39;100.00;101896.50;5076437;28;20036;-36
2023/02/18 09:01:36;;;;;;;10.40;3.93;;;;;;;9.35;100.00;101893.34;5075633;28;20483;-36
2023/02/18 09:04:02;;;;;;;12.33;4.03;;;;;;;9.40;100.00;101892.75;5076157;28;20390;-36
2023/02/18 09:06:28;;;;;;;12.18;4.00;;;;;;;9.35;100.00;101887.94;5075990;28;20368;-36
2023/02/18 09:08:53;;;;;;;10.68;3.65;;;;;;;9.37;100.00;101895.84;5075136;28;20483;-36
2023/02/18 09:11:19;;;;;;;8.13;3.20;;;;;;;9.28;100.00;101887.91;5075058;28;20036;-36
2023/02/18 09:13:45;;;;;;;9.35;3.95;;;;;;;9.32;100.00;101901.84;5075364;28;20031;-36
2023/02/18 09:16:14;;;;;;;12.20;3.65;;;;;;;9.27;100.00;101901.56;5075863;28;20107;-41
2023/02/18 09:18:40;;;;;;;10.82;3.60;;;;;;;9.24;100.00;101892.03;5075138;28;20020;-36
2023/02/18 09:21:08;;;;;;;10.77;4.30;;;;;;;9.22;100.00;101894.09;5075934;28;20036;-36
2023/02/18 09:23:34;;;;;;;13.65;4.50;;;;;;;9.22;100.00;101895.94;5075056;28;20028;-36
2023/02/18 09:26:02;;;;;;;9.93;3.80;;;;;;;9.20;100.00;101895.31;5075624;28;20024;-36
2023/02/18 09:28:28;;;;;;;10.45;3.83;;;;;;;9.06;100.00;101877.34;5075502;28;20051;-36
2023/02/18 09:30:53;;;;;;;13.13;3.90;;;;;;;9.17;100.00;101885.72;5075004;28;20472;-36
2023/02/18 09:33:18;;;;;;;11.97;3.70;;;;;;;9.17;100.00;101890.28;5074929;28;20359;-36
2023/02/18 09:35:45;;;;;;;11.50;3.20;;;;;;;9.08;100.00;101870.75;5074949;28;20498;-36
2023/02/18 09:38:13;;;;;;;10.27;2.95;;;;;;;9.21;100.00;101886.19;5074788;28;20056;-36
2023/02/18 09:40:44;;;;;;;11.38;3.55;;;;;;;9.22;100.00;101894.09;5074726;28;20103;-36
2023/02/18 09:43:23;;;;;;;10.52;2.33;;;;;;;9.25;100.00;101899.09;5074323;28;20107;-36
2023/02/18 09:45:50;;;;;;;5.35;1.90;;;;;;;9.27;100.00;101885.38;5074668;28;20035;-36
2023/02/18 09:48:15;;;;;;;6.70;2.15;;;;;;;9.20;100.00;101885.34;5074826;28;20554;-36
2023/02/18 09:50:41;;;;;;;12.43;3.17;;;;;;;9.29;100.00;101894.97;5074881;28;20068;-36
2023/02/18 09:53:10;;;;;;;11.57;2.30;;;;;;;9.32;100.00;101903.69;5074761;28;20285;-36
2023/02/18 09:55:39;;;;;;;13.02;3.45;;;;;;;9.33;100.00;101902.69;5074953;28;20034;-36
2023/02/18 09:58:14;;;;;;;9.95;3.00;;;;;;;9.33;100.00;101906.22;5074364;28;20404;-36
2023/02/18 10:00:47;;;;;;;8.70;2.85;;;;;;;9.34;100.00;101907.88;5074638;28;20041;-36
2023/02/18 10:03:15;;;;;;;10.18;3.10;;;;;;;9.36;100.00;101910.38;5073978;28;20052;-36
2023/02/18 10:06:07;;;;;;;11.57;3.00;;;;;;;9.34;100.00;101907.88;5074281;28;20049;-36
2023/02/18 10:08:46;;;;;;;6.43;2.13;;;;;;;9.41;100.00;101908.75;5073683;28;20048;-36
2023/02/18 10:11:18;;;;;;;7.93;2.17;;;;;;;9.43;100.00;101901.28;5074738;28;20039;-36
2023/02/18 10:13:44;;;;;;;8.25;2.47;;;;;;;9.42;100.00;101907.72;5074748;28;20033;-36
2023/02/18 10:16:15;;;;;;;10.63;2.78;;;;;;;9.48;100.00;101906.09;5074926;28;20043;-36
2023/02/18 10:18:44;;;;;;;10.93;2.22;;;;;;;9.44;100.00;101894.03;5074333;28;20158;-36
2023/02/18 10:21:20;;;;;;;7.22;2.10;;;;;;;9.40;100.00;101892.75;5074744;28;20119;-36
2023/02/18 10:23:59;;;;;;;8.63;2.05;;;;;;;9.55;100.00;101920.47;5073956;28;20052;-36
2023/02/18 10:26:25;;;;;;;8.65;2.25;;;;;;;9.57;100.00;101929.22;5074252;28;20028;-36
2023/02/18 10:28:51;;;;;;;7.65;2.00;;;;;;;9.53;100.00;101934.19;5073842;28;20035;-36
2023/02/18 10:31:24;;;;;;;8.43;2.33;;;;;;;9.60;100.00;101941.47;5074436;28;20024;-36
2023/02/18 10:33:57;;;;;;;8.95;2.70;;;;;;;9.60;100.00;101945.00;5073204;28;20028;-36
2023/02/18 10:36:24;;;;;;;9.45;3.38;;;;;;;9.54;100.00;101926.91;5074086;28;20039;-36
2023/02/18 10:39:31;;;;;;;8.95;2.22;;;;;;;9.62;100.00;101936.72;5073694;28;20063;-36
2023/02/18 10:42:23;;;;;;;8.23;2.67;;;;;;;9.62;100.00;101936.72;5074521;28;20036;-36
2023/02/18 10:44:59;;;;;;;9.48;3.47;;;;;;;9.61;100.00;101943.16;5073730;28;20062;-36
2023/02/18 10:47:58;;;;;;;4.53;2.42;;;;;;;9.64;100.00;101957.09;5073793;28;20027;-36
2023/02/18 10:50:30;;;;;;;8.23;3.38;;;;;;;9.66;100.00;101954.19;5073695;28;20020;-36
2023/02/18 10:53:00;;;;;;;8.40;3.13;;;;;;;9.67;100.00;101959.41;5074191;28;20048;-36
2023/02/18 10:55:37;;;;;;;7.43;2.42;;;;;;;9.70;100.00;101960.88;5073867;28;20071;-36
2023/02/18 10:58:03;;;;;;;6.82;2.58;;;;;;;9.65;100.00;101953.34;5073453;28;20538;-36
2023/02/18 11:00:34;;;;;;;13.00;3.13;;;;;;;9.63;100.00;101966.22;5074406;28;20020;-36
2023/02/18 11:03:37;;;;;;;7.15;2.75;;;;;;;9.61;100.00;101960.19;5073517;28;20084;-36
2023/02/18 11:06:03;;;;;;;6.97;2.78;;;;;;;9.50;100.00;101936.44;5073172;28;20025;-36
2023/02/18 11:08:39;;;;;;;7.03;2.70;;;;;;;9.51;100.00;101947.03;5073396;28;20024;-36
2023/02/18 11:11:23;;;;;;;5.75;2.75;;;;;;;9.54;100.00;101941.25;5073181;28;20029;-36
2023/02/18 11:13:53;;;;;;;8.05;2.63;;;;;;;9.51;100.00;101947.03;5074233;28;20029;-36
2023/02/18 11:16:35;;;;;;;6.72;2.45;;;;;;;9.63;100.00;101957.31;5073390;28;20021;-36
2023/02/18 11:19:03;;;;;;;7.10;3.33;;;;;;;9.67;100.00;101963.97;5073378;28;20029;-36
2023/02/18 11:21:37;;;;;;;6.03;2.60;;;;;;;9.70;100.00;101975.19;5073596;28;20036;-36
2023/02/18 11:24:08;;;;;;;7.35;2.75;;;;;;;9.70;100.00;101955.47;5073303;28;20461;-36
2023/02/18 11:26:36;;;;;;;10.00;2.72;;;;;;;9.72;100.00;101951.53;5073019;28;20025;-36
2023/02/18 11:29:06;;;;;;;8.48;2.88;;;;;;;9.72;100.00;101956.13;5072955;28;20032;-36